x

Point Arguello, Ca (ptgc1) Weather Station

5:00am - Tue 30th Jun 2015 All times are PDT. -7 hours from GMT.

  • Wind
    15mph, 17mph gusts
  • Air Temp 56°f
  • Sea Pressure 1011.9mb
  • Point Arguello, Ca
  • Point Arguello, Ca

More Historic Weather Station data

Upgrade to MSW Pro to gain access to the past 30 days of data for over 8000 Wavebouys and Weather Stations around the globe.

Join Pro

Comparision Forecast

View Surf forecast
   
Tue 06/30 5:00am 15 17 mph 1011.9mb 56f
4:00am 15 16 mph 1012.1mb 56f
3:00am 17 20 mph 1012.3mb 57f
2:00am 18 21 mph 1012.3mb 57f
1:00am 21 22 mph 1012.8mb 57f
12:00am 21 22 mph 1012.8mb 57f
Mon 06/29 11:00pm 25 28 mph 1012.8mb 58f
10:00pm 24 28 mph 1012.9mb 58f
9:00pm 24 26 mph 1012.5mb 58f
8:00pm 26 30 mph 1012.2mb 58f
7:00pm 26 29 mph 1012.2mb 58f
6:00pm 26 30 mph 1012.4mb 58f
5:00pm 26 29 mph 1012.9mb 58f
4:00pm 24 26 mph 1013.5mb 56f
3:00pm 25 26 mph 1013.5mb 56f
2:00pm 24 25 mph 1014mb 56f
1:00pm 23 24 mph 1014.4mb 56f
12:00pm 22 23 mph 1014.5mb 56f
11:00am 24 26 mph 1014.3mb 55f
10:00am 26 29 mph 1014.2mb 55f
9:00am 29 31 mph 1014.2mb 55f
8:00am 32 33 mph 1013.8mb 55f
7:00am 33 36 mph 1013.3mb 56f
6:00am 36 38 mph 1012.8mb 56f
5:00am 33 37 mph 1012.9mb 56f
4:00am 34 37 mph 1013mb 57f
3:00am 33 34 mph 1013.3mb 57f
2:00am 32 36 mph 1013.5mb 57f
1:00am 30 32 mph 1013.9mb 58f
12:00am 30 33 mph 1014.1mb 58f
Sun 06/28 11:00pm 29 33 mph 1014.3mb 58f
10:00pm 28 31 mph 1014.3mb 59f
9:00pm 28 31 mph 1014.2mb 59f
8:00pm 28 32 mph 1014.1mb 60f
7:00pm 28 30 mph 1014mb 60f
6:00pm 28 31 mph 1014.1mb 60f
5:00pm 29 32 mph 1014.7mb 59f
4:00pm 26 29 mph 1015mb 60f
3:00pm 26 29 mph 1015.5mb 60f
2:00pm 25 28 mph 1015.8mb 59f
1:00pm 25 29 mph 1016mb 58f
12:00pm 28 29 mph 1016.1mb 58f
11:00am 28 29 mph 1015.9mb 57f
10:00am 28 30 mph 1015.7mb 57f
9:00am 29 31 mph 1015.5mb 56f
8:00am 30 32 mph 1015.2mb 56f
7:00am 30 31 mph 1015.1mb 56f
6:00am 26 28 mph 1014.7mb 57f
5:00am 31 32 mph 1014.2mb 57f
4:00am 28 29 mph 1014.1mb 57f
3:00am 30 31 mph 1014mb 57f
2:00am 25 28 mph 1014.4mb 59f
1:00am 23 26 mph 1014.9mb 60f
12:00am 25 29 mph 1014.8mb 60f
Sat 06/27 11:00pm 25 30 mph 1014.9mb 60f
10:00pm 25 29 mph 1014.8mb 60f
9:00pm 26 29 mph 1014.6mb 60f
8:00pm 28 30 mph 1015.1mb 61f
7:00pm 26 29 mph 1015.3mb 60f
6:00pm 25 28 mph 1015.3mb 60f
5:00pm 22 23 mph 1015.8mb 59f
4:00pm 24 25 mph 1016.1mb 58f
3:00pm 18 20 mph 1017mb 58f
2:00pm 15 16 mph 1017.7mb 58f
1:00pm 13
mph
1018mb 58f
12:00pm 15
mph
1017.7mb 58f
11:00am 16
mph
1017.8mb 58f
10:00am 18 21 mph 1017.4mb 58f
9:00am 20 21 mph 1016.9mb 58f
8:00am 15 17 mph 1016.9mb 58f
7:00am 15 16 mph 1016.4mb 58f
6:00am 13 14 mph 1015.8mb 57f
5:00am 13 14 mph 1015.1mb 57f
4:00am 16 17 mph 1014.7mb 57f
3:00am 15 16 mph 1014.8mb 58f
2:00am 16
mph
1014.9mb 59f
1:00am 14 17 mph 1015.2mb 59f
12:00am 14 15 mph 1015.4mb 59f
Fri 06/26 11:00pm 10 11 mph 1015.8mb 59f
10:00pm 7 8 mph 1016mb 60f
9:00pm 2 3 mph 1015.8mb 60f
8:00pm 2 3 mph 1015.5mb 60f
7:00pm 5
mph
1015.1mb 61f
6:00pm 8 9 mph 1014.9mb 61f
5:00pm 7 14 mph 1015.1mb 62f
4:00pm 11 14 mph 1015.4mb 61f
3:00pm 3 9 mph 1015.7mb 61f
2:00pm 10 17 mph 1015.7mb 60f